sensor_id;sensor_type;location;lat;lon;timestamp;temperature;humidity
5017;DHT22;2527;50.892;16.706;2023-08-17T00:01:46;22.90;99.90
5017;DHT22;2527;50.892;16.706;2023-08-17T00:04:12;22.90;99.90
5017;DHT22;2527;50.892;16.706;2023-08-17T00:06:38;22.90;99.90
5017;DHT22;2527;50.892;16.706;2023-08-17T00:09:04;22.80;99.90
5017;DHT22;2527;50.892;16.706;2023-08-17T00:11:29;22.80;99.90
5017;DHT22;2527;50.892;16.706;2023-08-17T00:13:55;22.80;99.90
5017;DHT22;2527;50.892;16.706;2023-08-17T00:16:21;22.80;99.90
5017;DHT22;2527;50.892;16.706;2023-08-17T00:18:48;22.80;99.90
5017;DHT22;2527;50.892;16.706;2023-08-17T00:21:14;22.70;99.90
5017;DHT22;2527;50.892;16.706;2023-08-17T00:23:39;22.70;99.90
5017;DHT22;2527;50.892;16.706;2023-08-17T00:26:05;22.70;99.90
5017;DHT22;2527;50.892;16.706;2023-08-17T00:28:31;22.70;99.90
5017;DHT22;2527;50.892;16.706;2023-08-17T00:30:57;22.70;99.90
5017;DHT22;2527;50.892;16.706;2023-08-17T00:33:23;22.80;99.90
5017;DHT22;2527;50.892;16.706;2023-08-17T00:35:48;22.80;99.90
5017;DHT22;2527;50.892;16.706;2023-08-17T00:38:14;22.80;99.90
5017;DHT22;2527;50.892;16.706;2023-08-17T00:40:40;22.80;99.90
5017;DHT22;2527;50.892;16.706;2023-08-17T00:43:06;22.80;99.90
5017;DHT22;2527;50.892;16.706;2023-08-17T00:45:32;22.80;99.90
5017;DHT22;2527;50.892;16.706;2023-08-17T00:47:58;22.90;99.90
5017;DHT22;2527;50.892;16.706;2023-08-17T00:50:24;22.90;99.90
5017;DHT22;2527;50.892;16.706;2023-08-17T00:52:51;22.80;99.90
5017;DHT22;2527;50.892;16.706;2023-08-17T00:55:17;21.80;99.90
5017;DHT22;2527;50.892;16.706;2023-08-17T00:57:42;22.70;99.90
5017;DHT22;2527;50.892;16.706;2023-08-17T01:00:11;22.80;99.90
5017;DHT22;2527;50.892;16.706;2023-08-17T01:02:41;22.70;99.90
5017;DHT22;2527;50.892;16.706;2023-08-17T01:05:07;22.70;99.90
5017;DHT22;2527;50.892;16.706;2023-08-17T01:07:34;22.70;99.90
5017;DHT22;2527;50.892;16.706;2023-08-17T01:09:59;22.60;99.90
5017;DHT22;2527;50.892;16.706;2023-08-17T01:12:33;22.60;99.90
5017;DHT22;2527;50.892;16.706;2023-08-17T01:20:07;22.50;99.90
5017;DHT22;2527;50.892;16.706;2023-08-17T01:22:34;22.40;99.90
5017;DHT22;2527;50.892;16.706;2023-08-17T01:25:01;21.80;99.90
5017;DHT22;2527;50.892;16.706;2023-08-17T01:27:36;22.40;99.90
5017;DHT22;2527;50.892;16.706;2023-08-17T01:30:03;22.30;99.90
5017;DHT22;2527;50.892;16.706;2023-08-17T01:32:34;22.30;99.90
5017;DHT22;2527;50.892;16.706;2023-08-17T01:35:06;22.30;99.90
5017;DHT22;2527;50.892;16.706;2023-08-17T01:37:33;22.20;99.90
5017;DHT22;2527;50.892;16.706;2023-08-17T01:39:59;22.20;99.90
5017;DHT22;2527;50.892;16.706;2023-08-17T01:42:26;22.20;99.90
5017;DHT22;2527;50.892;16.706;2023-08-17T01:44:52;22.20;99.90
5017;DHT22;2527;50.892;16.706;2023-08-17T01:47:21;22.20;99.90
5017;DHT22;2527;50.892;16.706;2023-08-17T01:49:47;22.10;99.90
5017;DHT22;2527;50.892;16.706;2023-08-17T01:52:14;22.10;99.90
5017;DHT22;2527;50.892;16.706;2023-08-17T01:54:40;22.10;99.90
5017;DHT22;2527;50.892;16.706;2023-08-17T01:57:06;22.10;99.90
5017;DHT22;2527;50.892;16.706;2023-08-17T01:59:31;22.10;99.90
5017;DHT22;2527;50.892;16.706;2023-08-17T02:01:57;22.10;99.90
5017;DHT22;2527;50.892;16.706;2023-08-17T02:04:22;22.10;99.90
5017;DHT22;2527;50.892;16.706;2023-08-17T02:06:48;22.00;99.90
5017;DHT22;2527;50.892;16.706;2023-08-17T02:09:14;22.00;99.90
5017;DHT22;2527;50.892;16.706;2023-08-17T02:11:40;22.00;99.90
5017;DHT22;2527;50.892;16.706;2023-08-17T02:14:05;22.00;99.90
5017;DHT22;2527;50.892;16.706;2023-08-17T02:16:31;22.00;99.90
5017;DHT22;2527;50.892;16.706;2023-08-17T02:18:56;21.90;99.90
5017;DHT22;2527;50.892;16.706;2023-08-17T02:21:22;22.00;99.90
5017;DHT22;2527;50.892;16.706;2023-08-17T02:23:48;21.90;99.90
5017;DHT22;2527;50.892;16.706;2023-08-17T02:26:14;21.90;99.90
5017;DHT22;2527;50.892;16.706;2023-08-17T02:28:40;21.90;99.90
5017;DHT22;2527;50.892;16.706;2023-08-17T02:31:06;21.90;99.90
5017;DHT22;2527;50.892;16.706;2023-08-17T02:33:32;21.90;99.90
5017;DHT22;2527;50.892;16.706;2023-08-17T02:35:58;21.90;99.90
5017;DHT22;2527;50.892;16.706;2023-08-17T02:38:24;21.90;99.90
5017;DHT22;2527;50.892;16.706;2023-08-17T02:40:50;21.90;99.90
5017;DHT22;2527;50.892;16.706;2023-08-17T02:43:17;21.90;99.90
5017;DHT22;2527;50.892;16.706;2023-08-17T02:45:43;21.80;99.90
5017;DHT22;2527;50.892;16.706;2023-08-17T02:48:09;21.80;99.90
5017;DHT22;2527;50.892;16.706;2023-08-17T02:50:34;21.90;99.90
5017;DHT22;2527;50.892;16.706;2023-08-17T02:53:00;21.80;99.90
5017;DHT22;2527;50.892;16.706;2023-08-17T02:55:27;21.80;99.90
5017;DHT22;2527;50.892;16.706;2023-08-17T02:57:53;21.80;99.90
5017;DHT22;2527;50.892;16.706;2023-08-17T03:00:18;21.80;99.90
5017;DHT22;2527;50.892;16.706;2023-08-17T03:02:44;21.80;99.90
5017;DHT22;2527;50.892;16.706;2023-08-17T03:05:10;21.80;99.90
5017;DHT22;2527;50.892;16.706;2023-08-17T03:07:36;21.70;99.90
5017;DHT22;2527;50.892;16.706;2023-08-17T03:10:01;21.70;99.90
5017;DHT22;2527;50.892;16.706;2023-08-17T03:12:27;21.70;99.90
5017;DHT22;2527;50.892;16.706;2023-08-17T03:14:53;21.70;99.90
5017;DHT22;2527;50.892;16.706;2023-08-17T03:17:18;21.70;99.90
5017;DHT22;2527;50.892;16.706;2023-08-17T03:19:44;21.60;99.90
5017;DHT22;2527;50.892;16.706;2023-08-17T03:22:09;21.60;99.90
5017;DHT22;2527;50.892;16.706;2023-08-17T03:24:35;21.60;99.90
5017;DHT22;2527;50.892;16.706;2023-08-17T03:27:00;21.50;99.90
5017;DHT22;2527;50.892;16.706;2023-08-17T03:29:26;21.50;99.90
5017;DHT22;2527;50.892;16.706;2023-08-17T03:31:52;21.50;99.90
5017;DHT22;2527;50.892;16.706;2023-08-17T03:34:18;21.50;99.90
5017;DHT22;2527;50.892;16.706;2023-08-17T03:36:44;21.50;99.90
5017;DHT22;2527;50.892;16.706;2023-08-17T03:39:10;21.50;99.90
5017;DHT22;2527;50.892;16.706;2023-08-17T03:41:35;21.50;99.90
5017;DHT22;2527;50.892;16.706;2023-08-17T03:44:02;21.50;99.90
5017;DHT22;2527;50.892;16.706;2023-08-17T03:46:29;21.50;99.90
5017;DHT22;2527;50.892;16.706;2023-08-17T03:48:54;21.50;99.90
5017;DHT22;2527;50.892;16.706;2023-08-17T03:51:20;21.50;99.90
5017;DHT22;2527;50.892;16.706;2023-08-17T03:53:45;21.50;99.90
5017;DHT22;2527;50.892;16.706;2023-08-17T03:56:12;21.50;99.90
5017;DHT22;2527;50.892;16.706;2023-08-17T03:58:37;21.50;99.90
5017;DHT22;2527;50.892;16.706;2023-08-17T04:01:03;21.50;99.90
5017;DHT22;2527;50.892;16.706;2023-08-17T04:03:31;21.50;99.90
5017;DHT22;2527;50.892;16.706;2023-08-17T04:06:03;21.50;99.90
5017;DHT22;2527;50.892;16.706;2023-08-17T04:08:30;21.50;99.90
5017;DHT22;2527;50.892;16.706;2023-08-17T04:10:56;21.50;99.90
5017;DHT22;2527;50.892;16.706;2023-08-17T04:13:21;21.50;99.90
5017;DHT22;2527;50.892;16.706;2023-08-17T04:15:47;21.50;99.90
5017;DHT22;2527;50.892;16.706;2023-08-17T04:18:13;21.50;99.90
5017;DHT22;2527;50.892;16.706;2023-08-17T04:20:38;21.50;99.90
5017;DHT22;2527;50.892;16.706;2023-08-17T04:23:04;21.50;99.90
5017;DHT22;2527;50.892;16.706;2023-08-17T04:25:30;21.50;99.90
5017;DHT22;2527;50.892;16.706;2023-08-17T04:27:55;21.50;99.90
5017;DHT22;2527;50.892;16.706;2023-08-17T04:30:21;21.50;99.90
5017;DHT22;2527;50.892;16.706;2023-08-17T04:32:47;21.60;99.90
5017;DHT22;2527;50.892;16.706;2023-08-17T04:35:18;21.50;99.90
5017;DHT22;2527;50.892;16.706;2023-08-17T04:37:44;21.50;99.90
5017;DHT22;2527;50.892;16.706;2023-08-17T04:40:09;21.50;99.90
5017;DHT22;2527;50.892;16.706;2023-08-17T04:42:35;21.50;99.90
5017;DHT22;2527;50.892;16.706;2023-08-17T04:45:02;21.50;99.90
5017;DHT22;2527;50.892;16.706;2023-08-17T04:47:28;21.50;99.90
5017;DHT22;2527;50.892;16.706;2023-08-17T04:49:53;21.60;99.90
5017;DHT22;2527;50.892;16.706;2023-08-17T04:52:19;21.60;99.90
5017;DHT22;2527;50.892;16.706;2023-08-17T04:54:46;21.60;99.90
5017;DHT22;2527;50.892;16.706;2023-08-17T04:57:12;21.70;99.90
5017;DHT22;2527;50.892;16.706;2023-08-17T04:59:37;21.70;99.90
5017;DHT22;2527;50.892;16.706;2023-08-17T05:02:03;21.70;99.90
5017;DHT22;2527;50.892;16.706;2023-08-17T05:04:29;21.80;99.90
5017;DHT22;2527;50.892;16.706;2023-08-17T05:06:56;21.70;99.90
5017;DHT22;2527;50.892;16.706;2023-08-17T05:09:22;21.70;99.90
5017;DHT22;2527;50.892;16.706;2023-08-17T05:11:49;21.70;99.90
5017;DHT22;2527;50.892;16.706;2023-08-17T05:14:15;21.70;99.90
5017;DHT22;2527;50.892;16.706;2023-08-17T05:16:40;21.70;99.90
5017;DHT22;2527;50.892;16.706;2023-08-17T05:19:07;21.70;99.90
5017;DHT22;2527;50.892;16.706;2023-08-17T05:21:34;21.70;99.90
5017;DHT22;2527;50.892;16.706;2023-08-17T05:24:00;21.80;99.90
5017;DHT22;2527;50.892;16.706;2023-08-17T05:26:25;21.80;99.90
5017;DHT22;2527;50.892;16.706;2023-08-17T05:28:51;21.80;99.90
5017;DHT22;2527;50.892;16.706;2023-08-17T05:31:17;21.80;99.90
5017;DHT22;2527;50.892;16.706;2023-08-17T05:33:43;21.80;99.90
5017;DHT22;2527;50.892;16.706;2023-08-17T05:36:08;21.90;99.90
5017;DHT22;2527;50.892;16.706;2023-08-17T05:38:34;21.90;99.90
5017;DHT22;2527;50.892;16.706;2023-08-17T05:41:00;21.90;99.90
5017;DHT22;2527;50.892;16.706;2023-08-17T05:43:27;21.90;99.90
5017;DHT22;2527;50.892;16.706;2023-08-17T05:45:53;21.90;99.90
5017;DHT22;2527;50.892;16.706;2023-08-17T05:48:18;22.00;99.90
5017;DHT22;2527;50.892;16.706;2023-08-17T05:50:44;22.00;99.90
5017;DHT22;2527;50.892;16.706;2023-08-17T05:53:10;22.00;99.90
5017;DHT22;2527;50.892;16.706;2023-08-17T05:55:36;22.00;99.90
5017;DHT22;2527;50.892;16.706;2023-08-17T05:58:02;22.10;99.90
5017;DHT22;2527;50.892;16.706;2023-08-17T06:00:29;22.60;99.90
5017;DHT22;2527;50.892;16.706;2023-08-17T06:02:55;22.80;99.90
5017;DHT22;2527;50.892;16.706;2023-08-17T06:05:29;23.00;99.90
5017;DHT22;2527;50.892;16.706;2023-08-17T06:07:58;23.10;99.90
5017;DHT22;2527;50.892;16.706;2023-08-17T06:10:23;23.10;99.90
5017;DHT22;2527;50.892;16.706;2023-08-17T06:12:59;23.00;99.90
5017;DHT22;2527;50.892;16.706;2023-08-17T06:15:24;23.00;99.90
5017;DHT22;2527;50.892;16.706;2023-08-17T06:17:50;23.00;99.90
5017;DHT22;2527;50.892;16.706;2023-08-17T06:20:16;22.90;99.90
5017;DHT22;2527;50.892;16.706;2023-08-17T06:22:42;22.90;99.90
5017;DHT22;2527;50.892;16.706;2023-08-17T06:25:08;22.90;99.90
5017;DHT22;2527;50.892;16.706;2023-08-17T06:27:37;22.80;99.90
5017;DHT22;2527;50.892;16.706;2023-08-17T06:30:03;22.80;99.90
5017;DHT22;2527;50.892;16.706;2023-08-17T06:32:29;22.80;99.90
5017;DHT22;2527;50.892;16.706;2023-08-17T06:34:55;22.70;99.90
5017;DHT22;2527;50.892;16.706;2023-08-17T06:37:21;22.70;99.90
5017;DHT22;2527;50.892;16.706;2023-08-17T06:39:46;22.60;99.90
5017;DHT22;2527;50.892;16.706;2023-08-17T06:42:12;22.60;99.90
5017;DHT22;2527;50.892;16.706;2023-08-17T06:44:37;22.60;99.90
5017;DHT22;2527;50.892;16.706;2023-08-17T06:47:03;22.50;99.90
5017;DHT22;2527;50.892;16.706;2023-08-17T06:49:30;22.50;99.90
5017;DHT22;2527;50.892;16.706;2023-08-17T06:51:56;22.60;99.90
5017;DHT22;2527;50.892;16.706;2023-08-17T06:54:21;22.50;99.90
5017;DHT22;2527;50.892;16.706;2023-08-17T06:56:47;22.50;99.90
5017;DHT22;2527;50.892;16.706;2023-08-17T06:59:13;22.60;99.90
5017;DHT22;2527;50.892;16.706;2023-08-17T07:01:38;22.60;99.90
5017;DHT22;2527;50.892;16.706;2023-08-17T07:04:05;22.70;99.90
5017;DHT22;2527;50.892;16.706;2023-08-17T07:06:30;22.90;99.90
5017;DHT22;2527;50.892;16.706;2023-08-17T07:08:56;23.10;99.90
5017;DHT22;2527;50.892;16.706;2023-08-17T07:11:22;23.20;99.90
5017;DHT22;2527;50.892;16.706;2023-08-17T07:13:47;23.30;99.90
5017;DHT22;2527;50.892;16.706;2023-08-17T07:16:13;23.50;99.90
5017;DHT22;2527;50.892;16.706;2023-08-17T07:18:38;23.60;99.90
5017;DHT22;2527;50.892;16.706;2023-08-17T07:21:04;23.60;99.90
5017;DHT22;2527;50.892;16.706;2023-08-17T07:23:29;23.70;99.90
5017;DHT22;2527;50.892;16.706;2023-08-17T07:25:55;23.80;99.90
5017;DHT22;2527;50.892;16.706;2023-08-17T07:28:21;23.80;99.90
5017;DHT22;2527;50.892;16.706;2023-08-17T07:30:47;23.90;99.90
5017;DHT22;2527;50.892;16.706;2023-08-17T07:33:12;23.90;99.90
5017;DHT22;2527;50.892;16.706;2023-08-17T07:35:38;24.00;99.90
5017;DHT22;2527;50.892;16.706;2023-08-17T07:38:03;24.10;99.90
5017;DHT22;2527;50.892;16.706;2023-08-17T07:40:29;24.20;99.90
5017;DHT22;2527;50.892;16.706;2023-08-17T07:42:54;24.40;99.90
5017;DHT22;2527;50.892;16.706;2023-08-17T07:45:20;25.10;99.90
5017;DHT22;2527;50.892;16.706;2023-08-17T07:47:46;24.80;99.90
5017;DHT22;2527;50.892;16.706;2023-08-17T07:50:12;24.90;99.90
5017;DHT22;2527;50.892;16.706;2023-08-17T07:52:38;24.90;99.90
5017;DHT22;2527;50.892;16.706;2023-08-17T07:55:03;24.90;99.90
5017;DHT22;2527;50.892;16.706;2023-08-17T07:57:30;24.90;99.90
5017;DHT22;2527;50.892;16.706;2023-08-17T07:59:56;24.90;99.90
5017;DHT22;2527;50.892;16.706;2023-08-17T08:02:22;25.00;99.90
5017;DHT22;2527;50.892;16.706;2023-08-17T08:04:47;25.00;99.90
5017;DHT22;2527;50.892;16.706;2023-08-17T08:07:14;25.00;99.90
5017;DHT22;2527;50.892;16.706;2023-08-17T08:09:40;25.00;99.90
5017;DHT22;2527;50.892;16.706;2023-08-17T08:12:06;25.00;99.90
5017;DHT22;2527;50.892;16.706;2023-08-17T08:14:33;24.90;99.90
5017;DHT22;2527;50.892;16.706;2023-08-17T08:16:59;24.90;99.90
5017;DHT22;2527;50.892;16.706;2023-08-17T08:19:25;24.80;99.90
5017;DHT22;2527;50.892;16.706;2023-08-17T08:21:50;24.80;99.90
5017;DHT22;2527;50.892;16.706;2023-08-17T08:24:16;24.80;99.90
5017;DHT22;2527;50.892;16.706;2023-08-17T08:26:42;24.70;99.90
5017;DHT22;2527;50.892;16.706;2023-08-17T08:29:08;24.70;99.90
5017;DHT22;2527;50.892;16.706;2023-08-17T08:31:34;24.70;99.90
5017;DHT22;2527;50.892;16.706;2023-08-17T08:34:00;24.70;99.90
5017;DHT22;2527;50.892;16.706;2023-08-17T08:36:25;24.70;99.90
5017;DHT22;2527;50.892;16.706;2023-08-17T08:38:51;24.70;99.90
5017;DHT22;2527;50.892;16.706;2023-08-17T08:41:17;24.70;99.90
5017;DHT22;2527;50.892;16.706;2023-08-17T08:43:42;24.70;99.90
5017;DHT22;2527;50.892;16.706;2023-08-17T08:46:08;24.70;99.90
5017;DHT22;2527;50.892;16.706;2023-08-17T08:48:34;24.70;99.90
5017;DHT22;2527;50.892;16.706;2023-08-17T08:51:00;24.70;99.90
5017;DHT22;2527;50.892;16.706;2023-08-17T08:53:32;24.70;99.90
5017;DHT22;2527;50.892;16.706;2023-08-17T08:55:58;24.70;99.90
5017;DHT22;2527;50.892;16.706;2023-08-17T08:58:25;24.70;99.90
5017;DHT22;2527;50.892;16.706;2023-08-17T09:00:52;24.80;99.90
5017;DHT22;2527;50.892;16.706;2023-08-17T09:03:19;24.90;99.90
5017;DHT22;2527;50.892;16.706;2023-08-17T09:05:48;25.00;99.90
5017;DHT22;2527;50.892;16.706;2023-08-17T09:08:14;25.20;99.90
5017;DHT22;2527;50.892;16.706;2023-08-17T09:10:40;25.30;99.90
5017;DHT22;2527;50.892;16.706;2023-08-17T09:13:06;25.40;99.90
5017;DHT22;2527;50.892;16.706;2023-08-17T09:15:32;25.50;99.90
5017;DHT22;2527;50.892;16.706;2023-08-17T09:17:57;25.60;99.90
5017;DHT22;2527;50.892;16.706;2023-08-17T09:20:42;25.60;99.90
5017;DHT22;2527;50.892;16.706;2023-08-17T09:23:13;25.70;99.90
5017;DHT22;2527;50.892;16.706;2023-08-17T09:25:39;25.80;99.90
5017;DHT22;2527;50.892;16.706;2023-08-17T09:28:12;25.80;99.90
5017;DHT22;2527;50.892;16.706;2023-08-17T09:33:21;25.90;99.90
5017;DHT22;2527;50.892;16.706;2023-08-17T09:35:47;26.00;99.90
5017;DHT22;2527;50.892;16.706;2023-08-17T09:38:12;26.00;99.90
5017;DHT22;2527;50.892;16.706;2023-08-17T09:40:38;26.10;99.90
5017;DHT22;2527;50.892;16.706;2023-08-17T09:43:04;26.10;99.90
5017;DHT22;2527;50.892;16.706;2023-08-17T09:45:30;26.20;99.90
5017;DHT22;2527;50.892;16.706;2023-08-17T09:47:58;26.20;99.90
5017;DHT22;2527;50.892;16.706;2023-08-17T09:50:24;26.30;99.90
5017;DHT22;2527;50.892;16.706;2023-08-17T09:52:54;26.30;99.90
5017;DHT22;2527;50.892;16.706;2023-08-17T09:55:20;26.40;99.90
5017;DHT22;2527;50.892;16.706;2023-08-17T09:57:46;26.50;99.90
5017;DHT22;2527;50.892;16.706;2023-08-17T10:00:12;26.50;99.90
5017;DHT22;2527;50.892;16.706;2023-08-17T10:02:38;26.60;99.90
5017;DHT22;2527;50.892;16.706;2023-08-17T10:05:04;26.70;99.90
5017;DHT22;2527;50.892;16.706;2023-08-17T10:07:30;26.70;99.90
5017;DHT22;2527;50.892;16.706;2023-08-17T10:09:59;26.80;99.90
5017;DHT22;2527;50.892;16.706;2023-08-17T10:12:27;26.80;99.90
5017;DHT22;2527;50.892;16.706;2023-08-17T10:14:55;26.80;99.90
5017;DHT22;2527;50.892;16.706;2023-08-17T10:17:22;26.80;99.90
5017;DHT22;2527;50.892;16.706;2023-08-17T10:19:55;26.80;99.90
5017;DHT22;2527;50.892;16.706;2023-08-17T10:22:31;26.70;99.90
5017;DHT22;2527;50.892;16.706;2023-08-17T10:24:59;26.80;99.90
5017;DHT22;2527;50.892;16.706;2023-08-17T10:27:25;26.80;99.90
5017;DHT22;2527;50.892;16.706;2023-08-17T10:29:51;26.70;99.90
5017;DHT22;2527;50.892;16.706;2023-08-17T10:32:18;26.70;99.90
5017;DHT22;2527;50.892;16.706;2023-08-17T10:34:43;26.70;99.90
5017;DHT22;2527;50.892;16.706;2023-08-17T10:37:10;26.70;99.90
5017;DHT22;2527;50.892;16.706;2023-08-17T10:39:36;26.70;99.90
5017;DHT22;2527;50.892;16.706;2023-08-17T10:42:04;26.60;99.90
5017;DHT22;2527;50.892;16.706;2023-08-17T10:49:47;26.70;99.90
5017;DHT22;2527;50.892;16.706;2023-08-17T10:52:13;26.70;99.90
5017;DHT22;2527;50.892;16.706;2023-08-17T10:54:39;26.70;99.90
5017;DHT22;2527;50.892;16.706;2023-08-17T10:57:24;26.70;99.90
5017;DHT22;2527;50.892;16.706;2023-08-17T11:00:35;26.70;99.90
5017;DHT22;2527;50.892;16.706;2023-08-17T11:02:39;26.80;99.90
5017;DHT22;2527;50.892;16.706;2023-08-17T11:05:06;26.80;99.90
5017;DHT22;2527;50.892;16.706;2023-08-17T11:07:42;26.80;99.90
5017;DHT22;2527;50.892;16.706;2023-08-17T11:10:11;26.80;99.90
5017;DHT22;2527;50.892;16.706;2023-08-17T11:12:38;26.80;99.90
5017;DHT22;2527;50.892;16.706;2023-08-17T11:15:03;26.80;99.90
5017;DHT22;2527;50.892;16.706;2023-08-17T11:17:30;26.80;99.90
5017;DHT22;2527;50.892;16.706;2023-08-17T11:19:55;26.80;99.90
5017;DHT22;2527;50.892;16.706;2023-08-17T11:22:21;26.80;99.90
5017;DHT22;2527;50.892;16.706;2023-08-17T11:24:46;26.80;99.90
5017;DHT22;2527;50.892;16.706;2023-08-17T11:27:13;26.80;99.90
5017;DHT22;2527;50.892;16.706;2023-08-17T11:29:39;26.80;99.90
5017;DHT22;2527;50.892;16.706;2023-08-17T11:32:05;26.80;99.90
5017;DHT22;2527;50.892;16.706;2023-08-17T11:34:30;26.80;99.90
5017;DHT22;2527;50.892;16.706;2023-08-17T11:36:59;26.80;99.90
5017;DHT22;2527;50.892;16.706;2023-08-17T11:39:25;26.80;99.90
5017;DHT22;2527;50.892;16.706;2023-08-17T11:41:50;26.80;99.90
5017;DHT22;2527;50.892;16.706;2023-08-17T11:44:18;26.80;99.90
5017;DHT22;2527;50.892;16.706;2023-08-17T11:46:46;26.80;99.90
5017;DHT22;2527;50.892;16.706;2023-08-17T11:49:12;26.80;99.90
5017;DHT22;2527;50.892;16.706;2023-08-17T11:51:38;26.80;99.90
5017;DHT22;2527;50.892;16.706;2023-08-17T11:54:05;26.80;99.90
5017;DHT22;2527;50.892;16.706;2023-08-17T11:56:33;26.80;99.90
5017;DHT22;2527;50.892;16.706;2023-08-17T11:58:58;26.80;99.90
5017;DHT22;2527;50.892;16.706;2023-08-17T12:01:24;26.80;99.90
5017;DHT22;2527;50.892;16.706;2023-08-17T12:03:50;26.80;99.90
5017;DHT22;2527;50.892;16.706;2023-08-17T12:06:16;26.80;99.90
5017;DHT22;2527;50.892;16.706;2023-08-17T12:08:43;26.80;99.90
5017;DHT22;2527;50.892;16.706;2023-08-17T12:11:08;26.80;99.90
5017;DHT22;2527;50.892;16.706;2023-08-17T12:13:34;26.80;99.90
5017;DHT22;2527;50.892;16.706;2023-08-17T12:16:00;26.90;99.90
5017;DHT22;2527;50.892;16.706;2023-08-17T12:18:26;26.80;99.90
5017;DHT22;2527;50.892;16.706;2023-08-17T12:20:52;26.90;99.90
5017;DHT22;2527;50.892;16.706;2023-08-17T12:23:18;26.80;99.90
5017;DHT22;2527;50.892;16.706;2023-08-17T12:25:44;26.80;99.90
5017;DHT22;2527;50.892;16.706;2023-08-17T12:28:12;26.80;99.90
5017;DHT22;2527;50.892;16.706;2023-08-17T12:30:38;26.80;99.90
5017;DHT22;2527;50.892;16.706;2023-08-17T12:33:03;26.80;99.90
5017;DHT22;2527;50.892;16.706;2023-08-17T12:35:30;26.80;99.90
5017;DHT22;2527;50.892;16.706;2023-08-17T12:37:56;26.80;99.90
5017;DHT22;2527;50.892;16.706;2023-08-17T12:40:22;26.80;99.90
5017;DHT22;2527;50.892;16.706;2023-08-17T12:42:47;26.80;99.90
5017;DHT22;2527;50.892;16.706;2023-08-17T12:45:13;26.80;99.90
5017;DHT22;2527;50.892;16.706;2023-08-17T12:47:39;26.80;99.90
5017;DHT22;2527;50.892;16.706;2023-08-17T12:50:05;26.80;99.90
5017;DHT22;2527;50.892;16.706;2023-08-17T12:52:31;26.80;99.90
5017;DHT22;2527;50.892;16.706;2023-08-17T12:54:56;26.80;99.90
5017;DHT22;2527;50.892;16.706;2023-08-17T12:57:22;26.80;99.90
5017;DHT22;2527;50.892;16.706;2023-08-17T12:59:47;26.80;99.90
5017;DHT22;2527;50.892;16.706;2023-08-17T13:02:13;26.80;99.90
5017;DHT22;2527;50.892;16.706;2023-08-17T13:04:39;26.80;99.90
5017;DHT22;2527;50.892;16.706;2023-08-17T13:07:05;26.80;99.90
5017;DHT22;2527;50.892;16.706;2023-08-17T13:09:30;26.80;99.90
5017;DHT22;2527;50.892;16.706;2023-08-17T13:11:56;26.80;99.90
5017;DHT22;2527;50.892;16.706;2023-08-17T13:14:21;26.80;99.90
5017;DHT22;2527;50.892;16.706;2023-08-17T13:16:51;26.80;99.90
5017;DHT22;2527;50.892;16.706;2023-08-17T13:19:17;26.90;99.90
5017;DHT22;2527;50.892;16.706;2023-08-17T13:21:43;26.90;99.90
5017;DHT22;2527;50.892;16.706;2023-08-17T13:24:08;26.90;99.90
5017;DHT22;2527;50.892;16.706;2023-08-17T13:26:34;26.90;99.90
5017;DHT22;2527;50.892;16.706;2023-08-17T13:29:00;26.90;99.90
5017;DHT22;2527;50.892;16.706;2023-08-17T13:31:25;26.90;99.90
5017;DHT22;2527;50.892;16.706;2023-08-17T13:33:51;26.90;99.90
5017;DHT22;2527;50.892;16.706;2023-08-17T13:36:18;26.80;99.90
5017;DHT22;2527;50.892;16.706;2023-08-17T13:38:44;26.90;99.90
5017;DHT22;2527;50.892;16.706;2023-08-17T13:41:10;26.90;99.90
5017;DHT22;2527;50.892;16.706;2023-08-17T13:43:36;26.90;99.90
5017;DHT22;2527;50.892;16.706;2023-08-17T13:46:01;26.90;99.90
5017;DHT22;2527;50.892;16.706;2023-08-17T13:48:27;26.90;99.90
5017;DHT22;2527;50.892;16.706;2023-08-17T13:50:53;26.90;99.90
5017;DHT22;2527;50.892;16.706;2023-08-17T13:53:19;26.90;99.90
5017;DHT22;2527;50.892;16.706;2023-08-17T13:55:44;26.90;99.90
5017;DHT22;2527;50.892;16.706;2023-08-17T13:58:10;26.90;99.90
5017;DHT22;2527;50.892;16.706;2023-08-17T14:00:36;26.90;99.90
5017;DHT22;2527;50.892;16.706;2023-08-17T14:03:02;26.90;99.90
5017;DHT22;2527;50.892;16.706;2023-08-17T14:05:28;27.00;99.90
5017;DHT22;2527;50.892;16.706;2023-08-17T14:07:54;27.00;99.90
5017;DHT22;2527;50.892;16.706;2023-08-17T14:10:20;27.00;99.90
5017;DHT22;2527;50.892;16.706;2023-08-17T14:12:45;27.00;99.90
5017;DHT22;2527;50.892;16.706;2023-08-17T14:15:11;27.00;99.90
5017;DHT22;2527;50.892;16.706;2023-08-17T14:17:37;27.00;99.90
5017;DHT22;2527;50.892;16.706;2023-08-17T14:20:03;27.00;99.90
5017;DHT22;2527;50.892;16.706;2023-08-17T14:22:30;27.10;99.90
5017;DHT22;2527;50.892;16.706;2023-08-17T14:24:55;27.10;99.90
5017;DHT22;2527;50.892;16.706;2023-08-17T14:27:21;27.10;99.90
5017;DHT22;2527;50.892;16.706;2023-08-17T14:29:47;27.10;99.90
5017;DHT22;2527;50.892;16.706;2023-08-17T14:32:13;27.10;99.90
5017;DHT22;2527;50.892;16.706;2023-08-17T14:34:38;27.10;99.90
5017;DHT22;2527;50.892;16.706;2023-08-17T14:37:04;27.10;99.90
5017;DHT22;2527;50.892;16.706;2023-08-17T14:39:29;27.10;99.90
5017;DHT22;2527;50.892;16.706;2023-08-17T14:41:55;27.20;99.90
5017;DHT22;2527;50.892;16.706;2023-08-17T14:44:21;27.20;99.90
5017;DHT22;2527;50.892;16.706;2023-08-17T14:46:47;27.20;99.90
5017;DHT22;2527;50.892;16.706;2023-08-17T14:49:13;27.20;99.90
5017;DHT22;2527;50.892;16.706;2023-08-17T14:51:39;27.20;99.90
5017;DHT22;2527;50.892;16.706;2023-08-17T14:54:05;27.30;99.90
5017;DHT22;2527;50.892;16.706;2023-08-17T14:56:31;27.30;99.90
5017;DHT22;2527;50.892;16.706;2023-08-17T14:58:57;27.30;99.90
5017;DHT22;2527;50.892;16.706;2023-08-17T15:01:24;27.30;99.90
5017;DHT22;2527;50.892;16.706;2023-08-17T15:03:49;27.30;99.90
5017;DHT22;2527;50.892;16.706;2023-08-17T15:06:15;27.40;99.90
5017;DHT22;2527;50.892;16.706;2023-08-17T15:08:41;27.30;99.90
5017;DHT22;2527;50.892;16.706;2023-08-17T15:11:07;27.20;99.90
5017;DHT22;2527;50.892;16.706;2023-08-17T15:13:32;27.10;99.90
5017;DHT22;2527;50.892;16.706;2023-08-17T15:15:58;27.00;99.90
5017;DHT22;2527;50.892;16.706;2023-08-17T15:18:24;26.80;99.90
5017;DHT22;2527;50.892;16.706;2023-08-17T15:20:49;26.60;99.90
5017;DHT22;2527;50.892;16.706;2023-08-17T15:23:15;26.40;99.90
5017;DHT22;2527;50.892;16.706;2023-08-17T15:25:41;26.30;99.90
5017;DHT22;2527;50.892;16.706;2023-08-17T15:28:07;26.10;99.90
5017;DHT22;2527;50.892;16.706;2023-08-17T15:30:32;26.00;99.90
5017;DHT22;2527;50.892;16.706;2023-08-17T15:32:58;25.90;99.90
5017;DHT22;2527;50.892;16.706;2023-08-17T15:35:24;25.70;99.90
5017;DHT22;2527;50.892;16.706;2023-08-17T15:37:50;25.50;99.90
5017;DHT22;2527;50.892;16.706;2023-08-17T15:40:16;25.30;99.90
5017;DHT22;2527;50.892;16.706;2023-08-17T15:42:42;25.10;99.90
5017;DHT22;2527;50.892;16.706;2023-08-17T15:45:07;25.00;99.90
5017;DHT22;2527;50.892;16.706;2023-08-17T15:47:34;24.80;99.90
5017;DHT22;2527;50.892;16.706;2023-08-17T15:49:59;24.70;99.90
5017;DHT22;2527;50.892;16.706;2023-08-17T15:52:26;24.60;99.90